Time;durP1;ratioP1;P1;durP2;ratioP2;P2;SDS_P1;SDS_P2;PMS_P1;PMS_P2;Temp;Humidity;BMP_temperature;BMP_pressure;BME280_temperature;BME280_humidity;BME280_pressure;Samples;Min_cycle;Max_cycle;Signal;HPM_P1;HPM_P2
2023/04/27 00:01:32;;;;;;;6.68;2.95;;;0.60;99.90;;;;;;5067668;28;20679;-55
2023/04/27 00:03:58;;;;;;;5.05;2.45;;;0.50;99.90;;;;;;5085731;28;20290;-54
2023/04/27 00:06:25;;;;;;;3.85;2.45;;;0.50;99.90;;;;;;5086133;28;20040;-54
2023/04/27 00:08:51;;;;;;;7.53;2.75;;;0.40;99.90;;;;;;5086766;28;20520;-55
2023/04/27 00:11:16;;;;;;;5.53;2.47;;;0.60;99.90;;;;;;5086713;28;20082;-54
2023/04/27 00:13:42;;;;;;;8.05;2.92;;;0.50;99.90;;;;;;5068413;28;20075;-54
2023/04/27 00:16:08;;;;;;;8.15;2.80;;;0.50;99.90;;;;;;5086265;28;20099;-55
2023/04/27 00:18:33;;;;;;;5.65;2.55;;;0.40;99.90;;;;;;5068402;28;20052;-55
2023/04/27 00:20:59;;;;;;;6.45;2.50;;;0.50;99.90;;;;;;5062573;28;20037;-53
2023/04/27 00:23:25;;;;;;;5.20;2.58;;;0.70;99.90;;;;;;5069593;28;20041;-54
2023/04/27 00:25:51;;;;;;;6.15;2.75;;;0.40;99.90;;;;;;5048395;28;20044;-54
2023/04/27 00:28:17;;;;;;;7.10;2.88;;;0.60;99.90;;;;;;5066033;28;20070;-54
2023/04/27 00:30:45;;;;;;;4.22;2.30;;;0.30;99.90;;;;;;5048278;28;20037;-54
2023/04/27 00:33:11;;;;;;;5.75;3.17;;;0.10;99.90;;;;;;5048030;28;20143;-54
2023/04/27 00:35:36;;;;;;;4.97;2.60;;;0.30;99.90;;;;;;5066085;28;20123;-52
2023/04/27 00:38:02;;;;;;;5.30;3.13;;;0.40;99.90;;;;;;5047570;28;20141;-52
2023/04/27 00:40:28;;;;;;;6.75;2.72;;;0.40;99.90;;;;;;5065355;28;20083;-53
2023/04/27 00:42:53;;;;;;;6.72;2.70;;;0.70;99.90;;;;;;5044430;28;20045;-53
2023/04/27 00:45:19;;;;;;;6.47;3.20;;;0.40;99.90;;;;;;5064589;28;20831;-53
2023/04/27 00:47:45;;;;;;;5.20;2.60;;;0.30;99.90;;;;;;5065735;28;20041;-55
2023/04/27 00:50:11;;;;;;;8.25;2.55;;;0.50;99.90;;;;;;5047870;28;20052;-52
2023/04/27 00:52:37;;;;;;;7.97;3.38;;;0.50;99.90;;;;;;5065109;28;20041;-54
2023/04/27 00:55:03;;;;;;;8.38;3.13;;;0.70;99.90;;;;;;5065274;28;20051;-54
2023/04/27 00:57:30;;;;;;;4.88;2.70;;;0.60;99.90;;;;;;5065302;28;20434;-52
2023/04/27 00:59:55;;;;;;;11.98;3.17;;;0.90;99.90;;;;;;5084649;28;20028;-54
2023/04/27 01:02:21;;;;;;;10.65;3.40;;;0.90;99.90;;;;;;5085481;28;20051;-54
2023/04/27 01:04:49;;;;;;;4.60;2.63;;;1.00;99.90;;;;;;5085135;28;20043;-54
2023/04/27 01:07:15;;;;;;;9.95;4.05;;;1.10;99.90;;;;;;5050458;28;20109;-53
2023/04/27 01:09:41;;;;;;;6.95;3.30;;;1.10;99.90;;;;;;5063759;28;20119;-54
2023/04/27 01:12:07;;;;;;;7.00;3.72;;;1.20;99.90;;;;;;5069025;28;20048;-54
2023/04/27 01:14:35;;;;;;;8.82;3.40;;;1.20;99.90;;;;;;5085226;28;20511;-54
2023/04/27 01:17:01;;;;;;;8.23;3.35;;;1.30;99.90;;;;;;5076347;28;20052;-54
2023/04/27 01:19:27;;;;;;;7.57;3.88;;;1.30;99.90;;;;;;5085218;28;20123;-54
2023/04/27 01:21:53;;;;;;;6.68;3.08;;;1.40;99.90;;;;;;5084849;28;20114;-53
2023/04/27 01:24:19;;;;;;;8.57;4.05;;;1.50;99.90;;;;;;5063841;28;20447;-54
2023/04/27 01:26:45;;;;;;;5.05;2.72;;;1.50;99.90;;;;;;5063409;28;20044;-53
2023/04/27 01:29:10;;;;;;;6.43;3.00;;;0.20;99.90;;;;;;5063008;28;20050;-55
2023/04/27 01:31:36;;;;;;;6.35;3.45;;;1.40;99.90;;;;;;5064854;28;20044;-53
2023/04/27 01:34:02;;;;;;;6.80;3.53;;;1.60;99.90;;;;;;5064871;28;20040;-54
2023/04/27 01:36:28;;;;;;;7.57;3.70;;;1.50;99.90;;;;;;5065117;28;20045;-55
2023/04/27 01:38:53;;;;;;;6.22;3.00;;;1.90;99.90;;;;;;5063403;28;20040;-54
2023/04/27 01:41:19;;;;;;;7.85;3.80;;;1.70;99.90;;;;;;5064439;28;20044;-54
2023/04/27 01:43:45;;;;;;;6.35;3.58;;;1.70;99.90;;;;;;5064659;28;20036;-54
2023/04/27 01:46:13;;;;;;;5.63;3.08;;;1.90;99.90;;;;;;5064460;28;20056;-54
2023/04/27 01:48:39;;;;;;;6.55;3.35;;;1.90;99.90;;;;;;5064295;28;20042;-53
2023/04/27 01:51:05;;;;;;;8.68;4.00;;;1.80;99.90;;;;;;5063874;28;20055;-54
2023/04/27 01:53:31;;;;;;;5.80;3.63;;;1.60;99.90;;;;;;5063869;28;20537;-54
2023/04/27 01:56:00;;;;;;;7.45;3.05;;;2.00;99.90;;;;;;5064151;28;20040;-54
2023/04/27 01:58:26;;;;;;;5.32;2.83;;;1.90;99.90;;;;;;5064046;28;20037;-54
2023/04/27 02:00:52;;;;;;;8.70;3.15;;;2.70;99.90;;;;;;5046310;28;20074;-54
2023/04/27 02:03:18;;;;;;;6.57;2.72;;;1.50;99.90;;;;;;5064775;28;20095;-53
2023/04/27 02:05:44;;;;;;;5.72;2.88;;;1.10;99.90;;;;;;5068260;28;20036;-53
2023/04/27 02:08:09;;;;;;;8.25;3.33;;;1.30;99.90;;;;;;5068523;28;20094;-54
2023/04/27 02:10:35;;;;;;;7.70;3.13;;;1.20;99.90;;;;;;5067391;28;20075;-53
2023/04/27 02:13:01;;;;;;;6.80;2.88;;;1.00;99.90;;;;;;5068945;28;20114;-54
2023/04/27 02:15:27;;;;;;;9.55;3.70;;;1.20;99.90;;;;;;5067502;28;20127;-54
2023/04/27 02:17:53;;;;;;;7.45;3.30;;;1.70;99.90;;;;;;5079793;28;20063;-53
2023/04/27 02:20:19;;;;;;;8.02;3.78;;;1.00;99.90;;;;;;5070450;28;20047;-53
2023/04/27 02:22:44;;;;;;;10.95;3.95;;;0.90;99.90;;;;;;5089015;28;20048;-54
2023/04/27 02:25:11;;;;;;;8.02;3.63;;;0.80;99.90;;;;;;5088799;28;20135;-54
2023/04/27 02:27:37;;;;;;;8.73;4.03;;;0.70;99.90;;;;;;5088650;28;20055;-54
2023/04/27 02:30:08;;;;;;;8.43;3.85;;;0.80;99.90;;;;;;5070544;28;20048;-54
2023/04/27 02:32:34;;;;;;;8.98;4.38;;;0.00;99.90;;;;;;5088646;28;20544;-53
2023/04/27 02:35:00;;;;;;;7.70;3.97;;;0.60;99.90;;;;;;5088427;28;20150;-54
2023/04/27 02:37:25;;;;;;;6.10;3.60;;;0.70;99.90;;;;;;5088412;28;20044;-53
2023/04/27 02:39:51;;;;;;;9.77;3.90;;;0.70;99.90;;;;;;5088679;28;20040;-53
2023/04/27 02:42:17;;;;;;;8.10;4.00;;;0.60;99.90;;;;;;5070467;28;20126;-52
2023/04/27 02:44:43;;;;;;;7.95;3.92;;;0.60;99.90;;;;;;5088381;28;20044;-54
2023/04/27 02:47:09;;;;;;;7.82;3.85;;;0.60;99.90;;;;;;5088228;28;20123;-54
2023/04/27 02:49:34;;;;;;;9.38;4.57;;;0.50;99.90;;;;;;5088329;28;20203;-54
2023/04/27 02:52:00;;;;;;;9.82;4.55;;;1.10;99.90;;;;;;5085134;28;20067;-54
2023/04/27 02:54:26;;;;;;;6.95;4.40;;;0.50;99.90;;;;;;5082827;28;20044;-52
2023/04/27 02:56:52;;;;;;;7.65;4.53;;;0.50;99.90;;;;;;5088369;28;20075;-54
2023/04/27 02:59:17;;;;;;;9.25;4.50;;;0.40;99.90;;;;;;5088069;28;20489;-53
2023/04/27 03:01:43;;;;;;;8.32;4.65;;;0.40;99.90;;;;;;5088457;28;20036;-53
2023/04/27 03:04:09;;;;;;;9.57;4.85;;;0.50;99.90;;;;;;5069800;28;20054;-54
2023/04/27 03:06:35;;;;;;;10.75;5.47;;;0.50;99.90;;;;;;5087750;28;20039;-54
2023/04/27 03:09:02;;;;;;;13.80;5.63;;;0.50;99.90;;;;;;5069947;28;20840;-53
2023/04/27 03:11:28;;;;;;;10.18;4.97;;;0.50;99.90;;;;;;5070076;28;20032;-54
2023/04/27 03:13:54;;;;;;;8.43;4.50;;;0.50;99.90;;;;;;5069635;28;20059;-54
2023/04/27 03:16:19;;;;;;;8.27;4.22;;;0.50;99.90;;;;;;5086600;28;20056;-54
2023/04/27 03:18:45;;;;;;;12.05;5.03;;;0.40;99.90;;;;;;5087682;28;20036;-53
2023/04/27 03:21:11;;;;;;;8.55;4.55;;;0.40;99.90;;;;;;5087603;28;20048;-53
2023/04/27 03:23:38;;;;;;;7.80;4.78;;;0.50;99.90;;;;;;5086330;28;20080;-54
2023/04/27 03:26:12;;;;;;;7.85;4.10;;;0.30;99.90;;;;;;5087424;28;20523;-54
2023/04/27 03:28:38;;;;;;;9.02;4.28;;;0.60;99.90;;;;;;5087033;28;20502;-53
2023/04/27 03:31:05;;;;;;;7.82;4.10;;;0.40;99.90;;;;;;5069062;28;20379;-53
2023/04/27 03:33:31;;;;;;;6.47;3.42;;;0.20;99.90;;;;;;5069214;28;20048;-53
2023/04/27 03:35:58;;;;;;;9.32;4.00;;;0.30;99.90;;;;;;5087243;28;20117;-54
2023/04/27 03:38:25;;;;;;;7.63;4.00;;;0.90;99.90;;;;;;5087046;28;20073;-53
2023/04/27 03:40:51;;;;;;;7.53;4.30;;;0.30;99.90;;;;;;5086560;28;20102;-53
2023/04/27 03:43:18;;;;;;;9.55;4.22;;;0.20;99.90;;;;;;5087009;28;20040;-54
2023/04/27 03:45:44;;;;;;;9.18;4.45;;;0.20;99.90;;;;;;5087175;28;20079;-53
2023/04/27 03:48:10;;;;;;;9.10;4.43;;;0.20;99.90;;;;;;5087242;28;20040;-52
2023/04/27 03:50:36;;;;;;;8.88;4.38;;;0.20;99.90;;;;;;5068585;28;20643;-53
2023/04/27 03:53:02;;;;;;;8.88;4.00;;;0.40;99.90;;;;;;5078760;28;20530;-53
2023/04/27 03:55:28;;;;;;;8.50;4.20;;;0.00;99.90;;;;;;5086490;28;20113;-53
2023/04/27 03:57:53;;;;;;;7.45;3.78;;;0.20;99.90;;;;;;5087095;28;20440;-53
2023/04/27 04:00:19;;;;;;;8.43;4.22;;;0.30;99.90;;;;;;5069179;28;20043;-53
2023/04/27 04:02:45;;;;;;;7.70;4.35;;;0.00;99.90;;;;;;5069207;28;20558;-54
2023/04/27 04:05:13;;;;;;;12.80;4.68;;;0.00;99.90;;;;;;5086904;28;20054;-53
2023/04/27 04:07:40;;;;;;;8.48;3.67;;;0.00;99.90;;;;;;5086638;28;20139;-53
2023/04/27 04:10:07;;;;;;;11.45;4.38;;;0.00;99.90;;;;;;5086971;28;20040;-54
2023/04/27 04:12:33;;;;;;;7.00;3.85;;;-0.10;99.90;;;;;;5086279;28;20059;-53
2023/04/27 04:14:58;;;;;;;10.05;4.25;;;-0.10;99.90;;;;;;5086214;28;20040;-52
2023/04/27 04:17:24;;;;;;;8.48;3.63;;;-0.10;99.90;;;;;;5073092;28;20048;-54
2023/04/27 04:19:50;;;;;;;8.70;3.67;;;0.00;99.90;;;;;;5054655;28;20054;-54
2023/04/27 04:22:16;;;;;;;7.50;3.78;;;0.00;99.90;;;;;;5034329;28;20055;-54
2023/04/27 04:24:41;;;;;;;9.25;4.20;;;0.00;99.90;;;;;;5062287;28;20103;-54
2023/04/27 04:27:07;;;;;;;9.23;4.22;;;0.00;99.90;;;;;;5065027;28;20769;-54
2023/04/27 04:29:33;;;;;;;10.15;4.32;;;0.00;99.90;;;;;;5064561;28;20045;-55
2023/04/27 04:31:59;;;;;;;6.50;3.70;;;0.00;99.90;;;;;;5047237;28;20091;-52
2023/04/27 04:34:25;;;;;;;7.78;3.75;;;0.10;99.90;;;;;;5064947;28;20048;-50
2023/04/27 04:36:50;;;;;;;8.63;5.20;;;0.10;99.90;;;;;;5065225;28;20639;-54
2023/04/27 04:39:19;;;;;;;11.50;5.45;;;0.00;99.90;;;;;;5062256;28;20256;-54
2023/04/27 04:41:45;;;;;;;8.70;3.95;;;0.20;99.90;;;;;;5062499;28;20352;-54
2023/04/27 04:44:11;;;;;;;6.20;3.88;;;0.10;99.90;;;;;;5063347;28;20044;-53
2023/04/27 04:46:37;;;;;;;7.35;3.60;;;0.20;99.90;;;;;;5061806;28;20085;-53
2023/04/27 04:49:03;;;;;;;8.00;3.85;;;0.40;99.90;;;;;;5045417;28;20044;-53
2023/04/27 04:51:29;;;;;;;8.27;3.70;;;0.20;99.90;;;;;;5063515;28;20033;-55
2023/04/27 04:53:55;;;;;;;6.97;4.22;;;0.30;99.90;;;;;;5044454;28;20051;-53
2023/04/27 04:56:21;;;;;;;9.00;3.90;;;0.20;99.90;;;;;;5061496;28;20119;-55
2023/04/27 04:58:47;;;;;;;9.20;4.30;;;0.30;99.90;;;;;;5045415;28;20390;-54
2023/04/27 05:01:14;;;;;;;6.65;3.55;;;0.40;99.90;;;;;;5043654;28;20048;-55
2023/04/27 05:03:41;;;;;;;7.82;4.30;;;0.30;99.90;;;;;;5028923;28;20048;-52
2023/04/27 05:06:10;;;;;;;10.07;4.50;;;0.80;99.90;;;;;;5056078;28;20048;-53
2023/04/27 05:08:36;;;;;;;7.65;4.60;;;0.80;99.90;;;;;;5053167;28;20036;-54
2023/04/27 05:11:01;;;;;;;9.35;4.47;;;1.10;99.90;;;;;;5057977;28;20043;-54
2023/04/27 05:13:28;;;;;;;8.05;4.18;;;1.30;99.90;;;;;;5029134;28;20048;-54
2023/04/27 05:15:54;;;;;;;8.25;5.20;;;1.50;99.90;;;;;;5049701;28;20049;-54
2023/04/27 05:18:20;;;;;;;10.05;5.07;;;2.20;99.90;;;;;;5039277;28;20118;-55
2023/04/27 05:20:45;;;;;;;11.43;5.05;;;3.00;99.90;;;;;;5058001;28;20101;-55
2023/04/27 05:23:14;;;;;;;8.60;4.43;;;4.40;99.90;;;;;;5027049;28;20055;-55
2023/04/27 05:25:40;;;;;;;10.30;4.90;;;4.20;99.90;;;;;;5044156;28;20041;-55
2023/04/27 05:28:08;;;;;;;8.38;5.05;;;5.40;99.90;;;;;;5064658;28;20465;-53
2023/04/27 05:30:34;;;;;;;7.95;4.88;;;5.80;99.90;;;;;;5058563;28;20719;-55
2023/04/27 05:33:07;;;;;;;9.90;4.38;;;5.50;99.90;;;;;;5067675;28;20173;-54
2023/04/27 05:35:33;;;;;;;;;;;5.40;99.90;;;;;;5064921;28;20047;-54
2023/04/27 05:37:58;;;;;;;8.90;4.38;;;6.00;99.90;;;;;;5068382;28;19943;-54
2023/04/27 05:40:24;;;;;;;9.05;5.32;;;6.50;99.90;;;;;;5041776;28;20063;-54
2023/04/27 05:42:50;;;;;;;6.95;4.85;;;7.20;99.90;;;;;;5060087;28;20037;-54
2023/04/27 05:45:16;;;;;;;7.75;4.60;;;8.10;99.90;;;;;;5061265;28;20044;-55
2023/04/27 05:47:42;;;;;;;7.25;4.45;;;9.60;99.90;;;;;;5066613;28;20115;-53
2023/04/27 05:50:08;;;;;;;6.28;4.47;;;8.50;99.90;;;;;;5062189;28;20593;-55
2023/04/27 05:52:34;;;;;;;7.20;4.10;;;8.80;99.90;;;;;;5057928;28;20041;-54
2023/04/27 05:54:59;;;;;;;9.70;5.15;;;9.00;99.90;;;;;;5046787;28;20134;-55
2023/04/27 05:57:26;;;;;;;5.72;3.88;;;9.20;99.90;;;;;;5024383;28;20076;-54
2023/04/27 05:59:52;;;;;;;5.45;3.85;;;9.40;99.90;;;;;;5060681;28;20425;-55
2023/04/27 06:02:18;;;;;;;7.63;3.63;;;9.60;99.90;;;;;;5054340;28;20072;-55
2023/04/27 06:04:45;;;;;;;7.00;3.80;;;9.80;99.90;;;;;;5050245;28;20037;-55
2023/04/27 06:07:13;;;;;;;5.88;3.67;;;10.10;99.90;;;;;;5062529;28;20048;-55
2023/04/27 06:09:40;;;;;;;8.05;3.55;;;10.40;99.90;;;;;;5055519;28;20033;-56
2023/04/27 06:12:07;;;;;;;5.88;3.45;;;10.30;99.90;;;;;;5053869;28;20051;-55
2023/04/27 06:14:34;;;;;;;5.72;3.17;;;10.40;99.90;;;;;;5062667;28;20759;-55
2023/04/27 06:17:00;;;;;;;7.40;3.30;;;10.50;99.90;;;;;;5067216;28;20075;-55
2023/04/27 06:19:26;;;;;;;9.18;4.03;;;10.60;99.90;;;;;;5050966;28;20405;-56
2023/04/27 06:21:53;;;;;;;4.55;2.92;;;10.80;99.80;;;;;;5061949;28;20040;-55
2023/04/27 06:24:19;;;;;;;4.63;2.65;;;11.10;99.60;;;;;;5062088;28;20119;-56
2023/04/27 06:26:45;;;;;;;6.03;3.03;;;11.40;99.40;;;;;;5061801;28;20088;-56
2023/04/27 06:29:11;;;;;;;3.97;2.92;;;11.60;98.80;;;;;;5044145;28;20782;-56
2023/04/27 06:31:36;;;;;;;4.53;2.53;;;11.80;98.50;;;;;;5044727;28;20040;-55
2023/04/27 06:34:03;;;;;;;5.40;2.20;;;12.10;98.40;;;;;;5043573;28;20049;-56
2023/04/27 06:36:28;;;;;;;4.32;2.05;;;12.40;97.90;;;;;;5045372;28;20493;-55
2023/04/27 06:38:55;;;;;;;5.47;2.85;;;12.90;97.60;;;;;;5063767;28;20045;-56
2023/04/27 06:41:25;;;;;;;4.00;2.15;;;13.10;97.00;;;;;;5063183;28;20080;-55
2023/04/27 06:43:51;;;;;;;2.75;1.45;;;13.30;96.50;;;;;;5062872;28;20553;-56
2023/04/27 06:46:17;;;;;;;2.63;1.50;;;13.50;95.80;;;;;;5062970;28;20048;-56
2023/04/27 06:48:43;;;;;;;3.10;1.63;;;13.60;95.30;;;;;;5044923;28;20047;-56
2023/04/27 06:51:09;;;;;;;5.68;1.40;;;13.70;94.80;;;;;;5063874;28;20128;-56
2023/04/27 06:53:35;;;;;;;2.72;1.20;;;13.80;94.30;;;;;;5048298;28;20033;-56
2023/04/27 06:56:01;;;;;;;4.00;1.20;;;13.90;93.80;;;;;;5064546;28;20509;-56
2023/04/27 06:58:27;;;;;;;4.20;0.80;;;14.10;93.50;;;;;;5061209;28;20041;-56
2023/04/27 07:00:52;;;;;;;3.42;1.23;;;14.40;93.10;;;;;;5058751;28;20032;-56
2023/04/27 07:03:19;;;;;;;2.10;1.10;;;14.70;92.50;;;;;;5023454;28;20048;-56
2023/04/27 07:05:45;;;;;;;4.00;1.05;;;14.90;91.80;;;;;;5056309;28;20079;-56
2023/04/27 07:08:11;;;;;;;3.63;0.93;;;15.20;91.20;;;;;;5039572;28;20048;-56
2023/04/27 07:10:37;;;;;;;2.25;0.70;;;15.50;90.50;;;;;;5057529;28;20774;-56
2023/04/27 07:13:03;;;;;;;3.75;1.23;;;15.30;90.20;;;;;;5057542;28;20044;-55
2023/04/27 07:15:30;;;;;;;3.13;0.90;;;14.90;90.50;;;;;;5062119;28;20072;-56
2023/04/27 07:17:56;;;;;;;4.95;1.15;;;14.90;90.50;;;;;;5073252;28;20096;-56
2023/04/27 07:20:22;;;;;;;2.53;0.88;;;15.10;90.20;;;;;;5040174;28;20458;-56
2023/04/27 07:22:48;;;;;;;3.47;0.98;;;15.10;89.40;;;;;;5067157;28;20052;-56
2023/04/27 07:25:17;;;;;;;5.70;0.95;;;15.10;88.70;;;;;;5056656;28;20591;-56
2023/04/27 07:27:44;;;;;;;4.35;0.90;;;14.90;87.30;;;;;;5077001;28;20119;-57
2023/04/27 07:30:12;;;;;;;3.13;0.70;;;14.70;87.70;;;;;;5055986;28;20127;-56
2023/04/27 07:32:40;;;;;;;6.05;1.20;;;14.30;87.90;;;;;;5058994;28;20044;-56
2023/04/27 07:35:08;;;;;;;4.78;0.80;;;14.10;88.20;;;;;;5075255;28;20402;-56
2023/04/27 07:37:37;;;;;;;4.32;0.63;;;13.90;88.50;;;;;;5040697;28;20119;-56
2023/04/27 07:40:13;;;;;;;4.53;1.13;;;13.90;89.00;;;;;;5058444;28;20047;-56
2023/04/27 07:42:40;;;;;;;3.88;1.00;;;13.90;89.60;;;;;;5074025;28;20040;-56
2023/04/27 07:45:06;;;;;;;4.75;0.80;;;13.90;89.60;;;;;;5071887;28;20037;-56
2023/04/27 07:47:32;;;;;;;4.22;1.00;;;14.10;89.00;;;;;;5040812;28;20075;-56
2023/04/27 07:49:58;;;;;;;3.22;1.08;;;14.30;87.60;;;;;;5076625;28;20075;-56
2023/04/27 07:52:24;;;;;;;5.50;1.05;;;14.40;86.60;;;;;;5074726;28;20094;-56
2023/04/27 07:54:50;;;;;;;3.97;1.05;;;14.40;86.90;;;;;;5075620;28;20427;-56
2023/04/27 07:57:16;;;;;;;3.88;1.17;;;14.60;86.60;;;;;;5075101;28;20047;-56
2023/04/27 07:59:42;;;;;;;3.10;0.77;;;14.90;86.20;;;;;;5076431;28;20040;-56
2023/04/27 08:02:08;;;;;;;1.30;0.60;;;15.20;86.20;;;;;;5074306;28;20171;-56
2023/04/27 08:04:36;;;;;;;2.88;0.82;;;15.70;85.40;;;;;;5056985;28;20044;-56
2023/04/27 08:07:02;;;;;;;2.67;0.73;;;16.20;82.50;;;;;;5076685;28;20055;-56
2023/04/27 08:09:28;;;;;;;1.92;0.70;;;16.50;80.90;;;;;;5052464;28;20041;-56
2023/04/27 08:11:53;;;;;;;1.67;0.50;;;16.80;79.90;;;;;;5049630;28;20055;-56
2023/04/27 08:14:19;;;;;;;4.10;0.65;;;17.10;79.30;;;;;;5047388;28;20044;-56
2023/04/27 08:16:45;;;;;;;5.88;1.00;;;17.50;78.00;;;;;;5065619;28;20088;-56
2023/04/27 08:19:10;;;;;;;4.43;0.60;;;17.70;76.30;;;;;;5085822;28;20075;-56
2023/04/27 08:21:37;;;;;;;3.60;0.80;;;18.00;75.10;;;;;;5089176;28;20032;-56
2023/04/27 08:24:05;;;;;;;3.13;0.50;;;18.40;74.00;;;;;;5053553;28;20052;-55
2023/04/27 08:26:31;;;;;;;2.88;0.65;;;18.70;72.70;;;;;;5077092;28;20568;-55
2023/04/27 08:28:58;;;;;;;1.45;0.50;;;18.90;71.80;;;;;;5082414;28;20056;-55
2023/04/27 08:31:25;;;;;;;2.10;0.47;;;19.00;71.60;;;;;;5051104;28;20055;-55
2023/04/27 08:33:51;;;;;;;2.25;0.70;;;19.20;70.10;;;;;;5082182;28;20051;-55
2023/04/27 08:36:18;;;;;;;3.80;0.77;;;20.10;69.30;;;;;;5050384;28;20044;-56
2023/04/27 08:38:45;;;;;;;2.25;0.93;;;19.40;68.10;;;;;;5083864;28;20568;-56
2023/04/27 08:41:10;;;;;;;2.65;1.00;;;19.50;67.50;;;;;;5090105;28;20850;-56
2023/04/27 08:43:36;;;;;;;3.78;0.77;;;19.40;67.40;;;;;;5057232;28;20050;-51
2023/04/27 08:46:02;;;;;;;4.95;0.80;;;19.50;66.90;;;;;;5060410;28;20134;-56
2023/04/27 08:48:28;;;;;;;2.75;0.65;;;19.50;65.80;;;;;;5057203;28;20046;-61
2023/04/27 08:50:56;;;;;;;1.48;0.70;;;19.50;65.00;;;;;;5062575;28;20474;-59
2023/04/27 08:53:22;;;;;;;2.15;0.73;;;19.40;65.00;;;;;;5065628;28;20044;-59
2023/04/27 08:55:51;;;;;;;2.80;0.80;;;19.30;65.30;;;;;;5044328;28;20031;-62
2023/04/27 08:58:17;;;;;;;3.05;1.00;;;19.10;65.50;;;;;;5055129;28;20063;-61
2023/04/27 09:00:44;;;;;;;2.45;1.20;;;18.90;65.20;;;;;;5055181;28;20143;-60
2023/04/27 09:03:26;;;;;;;2.15;0.55;;;18.80;66.10;;;;;;5056757;28;21210;-62
2023/04/27 09:05:51;;;;;;;2.00;0.50;;;18.70;65.50;;;;;;5075076;28;20040;-63
2023/04/27 09:08:17;;;;;;;2.83;0.73;;;18.60;65.90;;;;;;5054723;28;20074;-63
2023/04/27 09:10:47;;;;;;;5.30;0.95;;;18.70;65.70;;;;;;5057156;28;20054;-62
2023/04/27 09:13:14;;;;;;;1.67;0.60;;;18.80;65.40;;;;;;5074474;28;20093;-63
2023/04/27 09:15:44;;;;;;;3.15;1.08;;;18.80;65.30;;;;;;5056816;28;20790;-57
2023/04/27 09:18:20;;;;;;;3.83;1.05;;;18.80;65.20;;;;;;5038410;28;20198;-52
2023/04/27 09:20:47;;;;;;;3.75;0.90;;;18.80;63.40;;;;;;5074697;28;20044;-55
2023/04/27 09:23:45;;;;;;;2.97;0.80;;;18.90;65.00;;;;;;5076025;28;20656;-50
2023/04/27 09:26:25;;;;;;;3.00;1.13;;;18.90;64.10;;;;;;5054194;28;20113;-56
2023/04/27 09:28:53;;;;;;;3.15;1.50;;;18.90;63.80;;;;;;5076267;28;20228;-56
2023/04/27 09:31:19;;;;;;;4.70;1.30;;;18.50;64.20;;;;;;5076192;28;20042;-56
2023/04/27 09:33:46;;;;;;;4.32;1.65;;;18.30;64.10;;;;;;5076106;28;20044;-54
2023/04/27 09:36:13;;;;;;;6.47;1.80;;;18.10;63.90;;;;;;5075918;28;20135;-56
2023/04/27 09:38:39;;;;;;;4.78;1.27;;;17.80;64.50;;;;;;5058370;28;20541;-53
2023/04/27 09:41:07;;;;;;;3.38;1.02;;;17.40;63.50;;;;;;5077783;28;20062;-66
2023/04/27 09:43:33;;;;;;;2.47;1.15;;;16.90;63.30;;;;;;5034576;28;20048;-69
2023/04/27 09:45:59;;;;;;;3.92;1.42;;;16.40;63.60;;;;;;5065174;28;20028;-68
2023/04/27 09:48:25;;;;;;;4.72;1.30;;;16.00;64.60;;;;;;5055495;28;20051;-65
2023/04/27 09:50:52;;;;;;;5.00;1.30;;;16.10;65.70;;;;;;5076227;28;20094;-66
2023/04/27 09:53:22;;;;;;;3.78;1.40;;;16.30;65.40;;;;;;5076374;28;20115;-63
2023/04/27 09:56:27;;;;;;;3.00;1.38;;;16.50;65.40;;;;;;5075321;28;20793;-63
2023/04/27 09:59:25;;;;;;;3.28;1.30;;;16.50;64.60;;;;;;5038670;28;20281;-66
2023/04/27 10:01:55;;;;;;;5.40;1.58;;;16.20;64.80;;;;;;5017116;28;20044;-61
2023/04/27 10:04:42;;;;;;;3.88;1.52;;;16.40;64.40;;;;;;5075511;28;20047;-67
2023/04/27 10:07:11;;;;;;;6.18;1.55;;;16.20;60.10;;;;;;5057952;28;20381;-61
2023/04/27 10:09:48;;;;;;;3.45;1.33;;;16.10;64.60;;;;;;5056393;28;20047;-63
2023/04/27 10:12:14;;;;;;;3.55;1.70;;;16.00;64.90;;;;;;5054372;28;20045;-59
2023/04/27 10:14:57;;;;;;;3.30;1.70;;;15.90;65.30;;;;;;5073706;28;20059;-64
2023/04/27 10:17:35;;;;;;;3.83;1.60;;;15.90;65.10;;;;;;5054643;28;20657;-65
2023/04/27 10:20:06;;;;;;;4.25;1.60;;;15.90;66.60;;;;;;5076511;28;20078;-60
2023/04/27 10:22:45;;;;;;;4.60;1.80;;;16.00;66.10;;;;;;5039820;28;20533;-67
2023/04/27 10:25:24;;;;;;;5.43;1.95;;;15.90;64.70;;;;;;5057943;28;20035;-64
2023/04/27 10:28:00;;;;;;;4.80;2.20;;;15.50;66.60;;;;;;5043041;28;20040;-65
2023/04/27 10:30:33;;;;;;;4.28;1.65;;;15.20;65.40;;;;;;5043871;28;20089;-66
2023/04/27 10:33:08;;;;;;;3.85;1.58;;;15.20;65.90;;;;;;5051406;28;20052;-61
2023/04/27 10:35:33;;;;;;;3.22;1.60;;;15.20;64.60;;;;;;5058217;28;20120;-61
2023/04/27 10:38:16;;;;;;;3.13;1.60;;;15.30;66.30;;;;;;5079636;28;20032;-61
2023/04/27 10:41:03;;;;;;;3.92;1.63;;;15.40;66.10;;;;;;5059833;28;20032;-61
2023/04/27 10:43:31;;;;;;;4.60;1.60;;;15.60;65.60;;;;;;5037316;28;20036;-59
2023/04/27 10:46:08;;;;;;;5.30;2.72;;;15.50;65.00;;;;;;5024802;28;20064;-55
2023/04/27 10:48:33;;;;;;;4.28;2.30;;;15.50;64.90;;;;;;5058519;28;20091;-55
2023/04/27 10:51:00;;;;;;;7.78;2.13;;;15.30;65.10;;;;;;5048252;28;20036;-54
2023/04/27 10:53:32;;;;;;;4.47;2.30;;;14.90;67.80;;;;;;5063416;28;20043;-54
2023/04/27 10:55:58;;;;;;;4.63;1.75;;;14.60;66.50;;;;;;5067120;28;20044;-54
2023/04/27 10:58:24;;;;;;;4.57;1.85;;;14.40;67.30;;;;;;5048971;28;20036;-54
2023/04/27 11:00:50;;;;;;;5.20;2.45;;;14.20;68.30;;;;;;5066970;28;20042;-54
2023/04/27 11:03:19;;;;;;;4.50;2.50;;;14.60;68.30;;;;;;5066916;28;20036;-54
2023/04/27 11:05:46;;;;;;;2.85;1.98;;;14.10;67.50;;;;;;5066378;28;20067;-54
2023/04/27 11:08:14;;;;;;;4.05;1.90;;;14.20;67.40;;;;;;5049064;28;20087;-54
2023/04/27 11:10:43;;;;;;;5.18;1.67;;;14.30;66.90;;;;;;5066377;28;20048;-54
2023/04/27 11:13:12;;;;;;;3.58;1.98;;;14.40;67.80;;;;;;5066060;28;20052;-55
2023/04/27 11:15:43;;;;;;;3.17;1.42;;;14.50;67.90;;;;;;5047715;28;20051;-54
2023/04/27 11:18:09;;;;;;;5.22;2.25;;;14.50;67.70;;;;;;5063512;28;20092;-54
2023/04/27 11:20:35;;;;;;;5.07;2.35;;;14.50;67.70;;;;;;5066545;28;20490;-54
2023/04/27 11:23:01;;;;;;;4.68;2.45;;;14.30;67.40;;;;;;5066258;28;20072;-54
2023/04/27 11:25:30;;;;;;;3.55;1.58;;;14.20;68.20;;;;;;5064613;28;20119;-54
2023/04/27 11:27:55;;;;;;;6.03;2.10;;;14.20;68.40;;;;;;5065558;28;20094;-54
2023/04/27 11:30:22;;;;;;;5.10;2.05;;;14.10;68.40;;;;;;5065432;28;20040;-55
2023/04/27 11:32:49;;;;;;;4.45;1.83;;;14.00;68.80;;;;;;5063831;28;20716;-54
2023/04/27 11:35:15;;;;;;;5.72;2.30;;;14.00;69.10;;;;;;5065414;28;20040;-54
2023/04/27 11:37:41;;;;;;;5.18;1.85;;;14.10;69.00;;;;;;5064205;28;20102;-54
2023/04/27 11:40:08;;;;;;;3.95;2.00;;;14.20;68.80;;;;;;5063941;28;20429;-54
2023/04/27 11:42:34;;;;;;;4.50;1.98;;;14.40;68.00;;;;;;5065872;28;20044;-54
2023/04/27 11:45:06;;;;;;;4.18;2.10;;;14.50;68.30;;;;;;5064063;28;20059;-54
2023/04/27 11:47:34;;;;;;;8.40;2.45;;;14.50;69.00;;;;;;5065708;28;20052;-54
2023/04/27 11:50:01;;;;;;;4.75;1.92;;;14.40;69.10;;;;;;5063942;28;20122;-55
2023/04/27 11:52:31;;;;;;;4.10;2.10;;;14.40;69.60;;;;;;5064083;28;20044;-54
2023/04/27 11:54:59;;;;;;;3.30;1.38;;;14.40;69.80;;;;;;5063449;28;20048;-54
2023/04/27 11:57:34;;;;;;;3.15;1.50;;;14.30;69.70;;;;;;5065724;28;20071;-54
2023/04/27 12:00:09;;;;;;;3.53;1.50;;;14.10;69.30;;;;;;5065268;28;20036;-54
2023/04/27 12:02:35;;;;;;;4.80;1.98;;;14.00;69.10;;;;;;5065233;28;20050;-54
2023/04/27 12:05:02;;;;;;;6.63;2.55;;;13.90;69.20;;;;;;5065325;28;20043;-54
2023/04/27 12:07:28;;;;;;;4.45;1.60;;;13.80;70.00;;;;;;5065727;28;20044;-54
2023/04/27 12:09:54;;;;;;;7.50;1.90;;;13.80;70.10;;;;;;5080174;28;20037;-54
2023/04/27 12:12:21;;;;;;;3.97;1.85;;;13.80;70.10;;;;;;5065366;28;20041;-54
2023/04/27 12:14:47;;;;;;;3.55;2.03;;;13.80;69.80;;;;;;5065125;28;20086;-54
2023/04/27 12:17:13;;;;;;;3.80;1.85;;;13.80;70.40;;;;;;5064963;28;20123;-54
2023/04/27 12:19:38;;;;;;;3.85;1.50;;;13.80;69.70;;;;;;5065160;28;20451;-54
2023/04/27 12:22:04;;;;;;;5.22;1.70;;;13.90;69.30;;;;;;5060826;28;20063;-54
2023/04/27 12:24:31;;;;;;;4.90;1.65;;;14.00;69.80;;;;;;5044232;28;20048;-54
2023/04/27 12:26:57;;;;;;;3.17;2.00;;;14.00;69.80;;;;;;5065216;28;20033;-54
2023/04/27 12:29:23;;;;;;;3.95;1.92;;;14.00;69.70;;;;;;5044589;28;20562;-54
2023/04/27 12:31:49;;;;;;;4.95;1.77;;;14.00;70.10;;;;;;5045659;28;20049;-54
2023/04/27 12:34:16;;;;;;;3.20;1.80;;;14.10;70.00;;;;;;5043839;28;20092;-54
2023/04/27 12:36:42;;;;;;;5.30;2.15;;;14.10;69.90;;;;;;5044684;28;20120;-54
2023/04/27 12:39:13;;;;;;;2.95;1.63;;;14.20;69.60;;;;;;5064436;28;20144;-55
2023/04/27 12:41:40;;;;;;;2.70;1.30;;;14.30;68.50;;;;;;5065168;28;20390;-54
2023/04/27 12:44:06;;;;;;;4.72;2.05;;;14.50;69.20;;;;;;5064612;28;20036;-54
2023/04/27 12:46:32;;;;;;;4.18;2.20;;;14.60;69.10;;;;;;5059676;28;20099;-55
2023/04/27 12:48:57;;;;;;;4.43;2.28;;;14.70;68.20;;;;;;5044920;28;20105;-54
2023/04/27 12:51:23;;;;;;;6.30;2.00;;;14.70;67.20;;;;;;5026412;28;20056;-54